sensor_id;sensor_type;location;lat;lon;timestamp;temperature;humidity
67141;DHT22;54058;52.010;5.546;2022-11-15T00:00:07;8.80;85.00
67141;DHT22;54058;52.010;5.546;2022-11-15T00:02:33;8.80;85.20
67141;DHT22;54058;52.010;5.546;2022-11-15T00:04:58;8.80;85.20
67141;DHT22;54058;52.010;5.546;2022-11-15T00:07:24;8.80;85.40
67141;DHT22;54058;52.010;5.546;2022-11-15T00:09:50;8.80;85.40
67141;DHT22;54058;52.010;5.546;2022-11-15T00:12:15;8.80;85.50
67141;DHT22;54058;52.010;5.546;2022-11-15T00:14:41;8.80;85.40
67141;DHT22;54058;52.010;5.546;2022-11-15T00:17:06;8.80;85.40
67141;DHT22;54058;52.010;5.546;2022-11-15T00:19:32;8.80;85.50
67141;DHT22;54058;52.010;5.546;2022-11-15T00:21:58;8.80;85.70
67141;DHT22;54058;52.010;5.546;2022-11-15T00:24:24;8.90;85.60
67141;DHT22;54058;52.010;5.546;2022-11-15T00:26:49;8.90;86.10
67141;DHT22;54058;52.010;5.546;2022-11-15T00:29:15;8.90;85.50
67141;DHT22;54058;52.010;5.546;2022-11-15T00:31:40;9.00;85.60
67141;DHT22;54058;52.010;5.546;2022-11-15T00:34:06;9.00;85.50
67141;DHT22;54058;52.010;5.546;2022-11-15T00:36:35;9.00;85.50
67141;DHT22;54058;52.010;5.546;2022-11-15T00:39:00;9.00;85.50
67141;DHT22;54058;52.010;5.546;2022-11-15T00:41:28;9.00;85.50
67141;DHT22;54058;52.010;5.546;2022-11-15T00:43:54;9.10;85.60
67141;DHT22;54058;52.010;5.546;2022-11-15T00:46:19;9.10;85.60
67141;DHT22;54058;52.010;5.546;2022-11-15T00:48:45;9.10;85.80
67141;DHT22;54058;52.010;5.546;2022-11-15T00:51:10;9.10;85.60
67141;DHT22;54058;52.010;5.546;2022-11-15T00:53:36;9.10;85.60
67141;DHT22;54058;52.010;5.546;2022-11-15T00:56:02;9.10;85.70
67141;DHT22;54058;52.010;5.546;2022-11-15T00:58:27;9.10;85.70
67141;DHT22;54058;52.010;5.546;2022-11-15T01:00:53;9.10;85.70
67141;DHT22;54058;52.010;5.546;2022-11-15T01:03:18;9.10;85.70
67141;DHT22;54058;52.010;5.546;2022-11-15T01:05:44;9.10;85.70
67141;DHT22;54058;52.010;5.546;2022-11-15T01:08:13;9.10;85.60
67141;DHT22;54058;52.010;5.546;2022-11-15T01:10:39;9.20;85.60
67141;DHT22;54058;52.010;5.546;2022-11-15T01:13:05;9.20;85.60
67141;DHT22;54058;52.010;5.546;2022-11-15T01:15:30;9.20;85.60
67141;DHT22;54058;52.010;5.546;2022-11-15T01:17:56;9.20;85.80
67141;DHT22;54058;52.010;5.546;2022-11-15T01:20:21;9.20;85.80
67141;DHT22;54058;52.010;5.546;2022-11-15T01:22:47;9.20;85.80
67141;DHT22;54058;52.010;5.546;2022-11-15T01:25:13;9.30;86.00
67141;DHT22;54058;52.010;5.546;2022-11-15T01:27:38;9.20;86.00
67141;DHT22;54058;52.010;5.546;2022-11-15T01:30:04;9.30;86.00
67141;DHT22;54058;52.010;5.546;2022-11-15T01:32:30;9.30;86.00
67141;DHT22;54058;52.010;5.546;2022-11-15T01:34:55;9.30;86.00
67141;DHT22;54058;52.010;5.546;2022-11-15T01:37:21;9.30;85.90
67141;DHT22;54058;52.010;5.546;2022-11-15T01:39:47;9.30;85.90
67141;DHT22;54058;52.010;5.546;2022-11-15T01:42:13;9.40;85.90
67141;DHT22;54058;52.010;5.546;2022-11-15T01:44:45;9.40;85.90
67141;DHT22;54058;52.010;5.546;2022-11-15T01:47:24;9.40;85.80
67141;DHT22;54058;52.010;5.546;2022-11-15T01:50:12;9.50;85.90
67141;DHT22;54058;52.010;5.546;2022-11-15T01:52:40;9.50;85.80
67141;DHT22;54058;52.010;5.546;2022-11-15T01:55:25;9.50;85.80
67141;DHT22;54058;52.010;5.546;2022-11-15T01:57:55;9.50;86.00
67141;DHT22;54058;52.010;5.546;2022-11-15T02:00:22;9.60;85.90
67141;DHT22;54058;52.010;5.546;2022-11-15T02:02:47;9.60;85.90
67141;DHT22;54058;52.010;5.546;2022-11-15T02:05:13;9.60;85.90
67141;DHT22;54058;52.010;5.546;2022-11-15T02:07:39;9.60;85.90
67141;DHT22;54058;52.010;5.546;2022-11-15T02:10:22;9.70;86.10
67141;DHT22;54058;52.010;5.546;2022-11-15T02:12:49;9.70;86.10
67141;DHT22;54058;52.010;5.546;2022-11-15T02:15:15;9.70;86.10
67141;DHT22;54058;52.010;5.546;2022-11-15T02:18:23;9.70;86.10
67141;DHT22;54058;52.010;5.546;2022-11-15T02:21:11;9.80;86.20
67141;DHT22;54058;52.010;5.546;2022-11-15T02:26:30;9.80;86.30
67141;DHT22;54058;52.010;5.546;2022-11-15T02:29:09;9.80;86.30
67141;DHT22;54058;52.010;5.546;2022-11-15T02:31:39;9.80;86.30
67141;DHT22;54058;52.010;5.546;2022-11-15T02:37:26;9.80;86.60
67141;DHT22;54058;52.010;5.546;2022-11-15T02:40:11;9.80;86.70
67141;DHT22;54058;52.010;5.546;2022-11-15T02:42:43;9.90;86.70
67141;DHT22;54058;52.010;5.546;2022-11-15T02:45:32;9.90;86.60
67141;DHT22;54058;52.010;5.546;2022-11-15T02:48:01;9.90;86.60
67141;DHT22;54058;52.010;5.546;2022-11-15T02:50:29;10.00;86.60
67141;DHT22;54058;52.010;5.546;2022-11-15T02:52:57;10.00;86.50
67141;DHT22;54058;52.010;5.546;2022-11-15T02:55:31;10.00;86.60
67141;DHT22;54058;52.010;5.546;2022-11-15T03:00:50;10.10;86.80
67141;DHT22;54058;52.010;5.546;2022-11-15T03:03:31;10.10;86.70
67141;DHT22;54058;52.010;5.546;2022-11-15T03:06:18;10.10;86.70
67141;DHT22;54058;52.010;5.546;2022-11-15T03:11:21;10.20;86.70
67141;DHT22;54058;52.010;5.546;2022-11-15T03:14:36;10.20;86.70
67141;DHT22;54058;52.010;5.546;2022-11-15T03:19:50;10.20;86.90
67141;DHT22;54058;52.010;5.546;2022-11-15T03:22:21;10.20;86.70
67141;DHT22;54058;52.010;5.546;2022-11-15T03:24:53;10.20;86.70
67141;DHT22;54058;52.010;5.546;2022-11-15T03:27:22;10.20;86.80
67141;DHT22;54058;52.010;5.546;2022-11-15T03:29:56;10.30;86.90
67141;DHT22;54058;52.010;5.546;2022-11-15T03:32:30;10.20;87.00
67141;DHT22;54058;52.010;5.546;2022-11-15T03:37:37;10.30;87.20
67141;DHT22;54058;52.010;5.546;2022-11-15T03:40:06;10.30;87.30
67141;DHT22;54058;52.010;5.546;2022-11-15T03:45:22;10.40;87.40
67141;DHT22;54058;52.010;5.546;2022-11-15T03:50:22;10.40;87.90
67141;DHT22;54058;52.010;5.546;2022-11-15T03:52:48;10.40;87.40
67141;DHT22;54058;52.010;5.546;2022-11-15T03:55:20;10.40;87.40
67141;DHT22;54058;52.010;5.546;2022-11-15T03:57:47;10.40;87.40
67141;DHT22;54058;52.010;5.546;2022-11-15T04:00:13;10.50;87.50
67141;DHT22;54058;52.010;5.546;2022-11-15T04:02:39;10.50;87.50
67141;DHT22;54058;52.010;5.546;2022-11-15T04:05:05;10.50;87.60
67141;DHT22;54058;52.010;5.546;2022-11-15T04:07:31;10.50;87.60
67141;DHT22;54058;52.010;5.546;2022-11-15T04:09:56;10.50;87.60
67141;DHT22;54058;52.010;5.546;2022-11-15T04:12:32;10.60;87.60
67141;DHT22;54058;52.010;5.546;2022-11-15T04:15:05;10.60;87.50
67141;DHT22;54058;52.010;5.546;2022-11-15T04:17:48;10.60;87.70
67141;DHT22;54058;52.010;5.546;2022-11-15T04:20:18;10.60;87.80
67141;DHT22;54058;52.010;5.546;2022-11-15T04:23:11;10.60;87.70
67141;DHT22;54058;52.010;5.546;2022-11-15T04:26:00;10.60;87.80
67141;DHT22;54058;52.010;5.546;2022-11-15T04:28:26;10.60;87.80
67141;DHT22;54058;52.010;5.546;2022-11-15T04:30:52;10.60;87.70
67141;DHT22;54058;52.010;5.546;2022-11-15T04:33:18;10.60;87.80
67141;DHT22;54058;52.010;5.546;2022-11-15T04:35:44;10.60;87.80
67141;DHT22;54058;52.010;5.546;2022-11-15T04:38:30;10.60;87.80
67141;DHT22;54058;52.010;5.546;2022-11-15T04:40:55;10.70;87.90
67141;DHT22;54058;52.010;5.546;2022-11-15T04:43:21;10.60;87.90
67141;DHT22;54058;52.010;5.546;2022-11-15T04:45:47;10.70;87.90
67141;DHT22;54058;52.010;5.546;2022-11-15T04:48:12;10.60;88.00
67141;DHT22;54058;52.010;5.546;2022-11-15T04:50:38;10.70;88.20
67141;DHT22;54058;52.010;5.546;2022-11-15T04:53:03;10.70;88.10
67141;DHT22;54058;52.010;5.546;2022-11-15T04:55:29;10.70;88.10
67141;DHT22;54058;52.010;5.546;2022-11-15T04:57:59;10.70;88.10
67141;DHT22;54058;52.010;5.546;2022-11-15T05:00:27;10.70;88.00
67141;DHT22;54058;52.010;5.546;2022-11-15T05:02:53;10.70;88.20
67141;DHT22;54058;52.010;5.546;2022-11-15T05:05:38;10.70;88.20
67141;DHT22;54058;52.010;5.546;2022-11-15T05:08:03;10.70;88.20
67141;DHT22;54058;52.010;5.546;2022-11-15T05:10:29;10.80;88.20
67141;DHT22;54058;52.010;5.546;2022-11-15T05:12:55;10.80;88.20
67141;DHT22;54058;52.010;5.546;2022-11-15T05:15:21;10.80;88.20
67141;DHT22;54058;52.010;5.546;2022-11-15T05:17:46;10.80;88.30
67141;DHT22;54058;52.010;5.546;2022-11-15T05:20:12;10.80;88.30
67141;DHT22;54058;52.010;5.546;2022-11-15T05:22:38;10.80;88.30
67141;DHT22;54058;52.010;5.546;2022-11-15T05:25:04;10.80;88.40
67141;DHT22;54058;52.010;5.546;2022-11-15T05:27:30;10.80;88.30
67141;DHT22;54058;52.010;5.546;2022-11-15T05:29:55;10.80;88.40
67141;DHT22;54058;52.010;5.546;2022-11-15T05:32:21;10.80;88.50
67141;DHT22;54058;52.010;5.546;2022-11-15T05:34:47;10.80;88.50
67141;DHT22;54058;52.010;5.546;2022-11-15T05:37:14;10.80;88.50
67141;DHT22;54058;52.010;5.546;2022-11-15T05:39:39;10.80;88.50
67141;DHT22;54058;52.010;5.546;2022-11-15T05:42:11;10.90;88.60
67141;DHT22;54058;52.010;5.546;2022-11-15T05:44:40;10.90;88.60
67141;DHT22;54058;52.010;5.546;2022-11-15T05:47:09;10.90;88.70
67141;DHT22;54058;52.010;5.546;2022-11-15T05:49:37;10.90;88.70
67141;DHT22;54058;52.010;5.546;2022-11-15T05:52:05;10.90;88.70
67141;DHT22;54058;52.010;5.546;2022-11-15T05:54:32;11.00;88.90
67141;DHT22;54058;52.010;5.546;2022-11-15T05:56:59;11.00;88.80
67141;DHT22;54058;52.010;5.546;2022-11-15T05:59:25;11.00;88.80
67141;DHT22;54058;52.010;5.546;2022-11-15T06:01:53;11.00;88.80
67141;DHT22;54058;52.010;5.546;2022-11-15T06:04:19;11.00;88.80
67141;DHT22;54058;52.010;5.546;2022-11-15T06:06:44;11.00;88.90
67141;DHT22;54058;52.010;5.546;2022-11-15T06:09:10;11.00;88.90
67141;DHT22;54058;52.010;5.546;2022-11-15T06:11:36;11.10;88.90
67141;DHT22;54058;52.010;5.546;2022-11-15T06:14:01;11.10;89.00
67141;DHT22;54058;52.010;5.546;2022-11-15T06:16:27;11.10;89.00
67141;DHT22;54058;52.010;5.546;2022-11-15T06:18:52;11.10;89.00
67141;DHT22;54058;52.010;5.546;2022-11-15T06:21:18;11.10;89.10
67141;DHT22;54058;52.010;5.546;2022-11-15T06:23:44;11.10;89.10
67141;DHT22;54058;52.010;5.546;2022-11-15T06:26:09;11.10;89.20
67141;DHT22;54058;52.010;5.546;2022-11-15T06:28:35;11.10;89.30
67141;DHT22;54058;52.010;5.546;2022-11-15T06:31:09;11.10;89.30
67141;DHT22;54058;52.010;5.546;2022-11-15T06:33:35;11.10;89.30
67141;DHT22;54058;52.010;5.546;2022-11-15T06:36:05;11.20;90.00
67141;DHT22;54058;52.010;5.546;2022-11-15T06:38:31;11.20;89.40
67141;DHT22;54058;52.010;5.546;2022-11-15T06:41:04;11.20;89.40
67141;DHT22;54058;52.010;5.546;2022-11-15T06:43:30;11.20;89.50
67141;DHT22;54058;52.010;5.546;2022-11-15T06:45:58;11.20;89.50
67141;DHT22;54058;52.010;5.546;2022-11-15T06:48:25;11.20;89.50
67141;DHT22;54058;52.010;5.546;2022-11-15T06:50:52;11.30;89.50
67141;DHT22;54058;52.010;5.546;2022-11-15T06:53:17;11.30;89.50
67141;DHT22;54058;52.010;5.546;2022-11-15T06:55:43;11.30;89.50
67141;DHT22;54058;52.010;5.546;2022-11-15T06:58:09;11.30;89.60
67141;DHT22;54058;52.010;5.546;2022-11-15T07:00:34;11.30;89.50
67141;DHT22;54058;52.010;5.546;2022-11-15T07:03:00;11.30;89.50
67141;DHT22;54058;52.010;5.546;2022-11-15T07:05:30;11.30;89.60
67141;DHT22;54058;52.010;5.546;2022-11-15T07:07:57;11.30;89.70
67141;DHT22;54058;52.010;5.546;2022-11-15T07:10:23;11.40;89.70
67141;DHT22;54058;52.010;5.546;2022-11-15T07:12:51;11.40;89.60
67141;DHT22;54058;52.010;5.546;2022-11-15T07:15:18;11.40;89.60
67141;DHT22;54058;52.010;5.546;2022-11-15T07:17:43;11.40;89.60
67141;DHT22;54058;52.010;5.546;2022-11-15T07:20:09;11.40;89.60
67141;DHT22;54058;52.010;5.546;2022-11-15T07:22:35;11.40;89.60
67141;DHT22;54058;52.010;5.546;2022-11-15T07:25:01;11.40;89.70
67141;DHT22;54058;52.010;5.546;2022-11-15T07:27:26;11.40;89.60
67141;DHT22;54058;52.010;5.546;2022-11-15T07:29:52;11.40;89.70
67141;DHT22;54058;52.010;5.546;2022-11-15T07:32:18;11.50;89.80
67141;DHT22;54058;52.010;5.546;2022-11-15T07:34:43;11.50;89.70
67141;DHT22;54058;52.010;5.546;2022-11-15T07:37:11;11.50;89.80
67141;DHT22;54058;52.010;5.546;2022-11-15T07:39:37;11.50;89.80
67141;DHT22;54058;52.010;5.546;2022-11-15T07:42:04;11.50;89.80
67141;DHT22;54058;52.010;5.546;2022-11-15T07:44:48;11.50;89.80
67141;DHT22;54058;52.010;5.546;2022-11-15T07:47:14;11.50;90.00
67141;DHT22;54058;52.010;5.546;2022-11-15T07:49:39;11.50;89.80
67141;DHT22;54058;52.010;5.546;2022-11-15T07:52:05;11.60;89.90
67141;DHT22;54058;52.010;5.546;2022-11-15T07:54:32;11.60;89.90
67141;DHT22;54058;52.010;5.546;2022-11-15T07:56:57;11.60;90.20
67141;DHT22;54058;52.010;5.546;2022-11-15T07:59:23;11.60;89.90
67141;DHT22;54058;52.010;5.546;2022-11-15T08:01:48;11.60;89.80
67141;DHT22;54058;52.010;5.546;2022-11-15T08:04:14;11.70;89.90
67141;DHT22;54058;52.010;5.546;2022-11-15T08:06:40;11.70;89.80
67141;DHT22;54058;52.010;5.546;2022-11-15T08:09:05;11.70;89.80
67141;DHT22;54058;52.010;5.546;2022-11-15T08:11:31;11.70;89.80
67141;DHT22;54058;52.010;5.546;2022-11-15T08:13:58;11.70;89.90
67141;DHT22;54058;52.010;5.546;2022-11-15T08:16:24;11.80;89.90
67141;DHT22;54058;52.010;5.546;2022-11-15T08:18:50;11.80;90.30
67141;DHT22;54058;52.010;5.546;2022-11-15T08:21:19;11.80;90.00
67141;DHT22;54058;52.010;5.546;2022-11-15T08:23:45;11.80;89.90
67141;DHT22;54058;52.010;5.546;2022-11-15T08:26:11;11.80;89.90
67141;DHT22;54058;52.010;5.546;2022-11-15T08:28:37;11.80;89.90
67141;DHT22;54058;52.010;5.546;2022-11-15T08:31:03;11.90;90.00
67141;DHT22;54058;52.010;5.546;2022-11-15T08:33:29;11.90;90.00
67141;DHT22;54058;52.010;5.546;2022-11-15T08:36:01;11.90;90.00
67141;DHT22;54058;52.010;5.546;2022-11-15T08:38:27;12.00;90.20
67141;DHT22;54058;52.010;5.546;2022-11-15T08:41:00;12.00;90.00
67141;DHT22;54058;52.010;5.546;2022-11-15T08:43:29;12.10;90.00
67141;DHT22;54058;52.010;5.546;2022-11-15T08:45:56;12.10;90.00
67141;DHT22;54058;52.010;5.546;2022-11-15T08:48:22;12.10;89.90
67141;DHT22;54058;52.010;5.546;2022-11-15T08:50:48;12.10;89.80
67141;DHT22;54058;52.010;5.546;2022-11-15T08:53:13;12.10;89.80
67141;DHT22;54058;52.010;5.546;2022-11-15T08:55:40;12.10;89.80
67141;DHT22;54058;52.010;5.546;2022-11-15T08:58:06;12.10;89.80
67141;DHT22;54058;52.010;5.546;2022-11-15T09:00:32;12.10;89.90
67141;DHT22;54058;52.010;5.546;2022-11-15T09:02:58;12.10;89.90
67141;DHT22;54058;52.010;5.546;2022-11-15T09:05:25;12.10;90.00
67141;DHT22;54058;52.010;5.546;2022-11-15T09:07:54;12.20;90.00
67141;DHT22;54058;52.010;5.546;2022-11-15T09:10:20;12.20;90.00
67141;DHT22;54058;52.010;5.546;2022-11-15T09:12:46;12.20;90.00
67141;DHT22;54058;52.010;5.546;2022-11-15T09:15:13;12.20;90.00
67141;DHT22;54058;52.010;5.546;2022-11-15T09:17:39;12.20;90.10
67141;DHT22;54058;52.010;5.546;2022-11-15T09:20:06;12.20;90.00
67141;DHT22;54058;52.010;5.546;2022-11-15T09:22:32;12.20;90.00
67141;DHT22;54058;52.010;5.546;2022-11-15T09:24:58;12.20;90.00
67141;DHT22;54058;52.010;5.546;2022-11-15T09:27:28;12.20;90.00
67141;DHT22;54058;52.010;5.546;2022-11-15T09:29:54;12.20;90.00
67141;DHT22;54058;52.010;5.546;2022-11-15T09:32:22;12.30;90.00
67141;DHT22;54058;52.010;5.546;2022-11-15T09:34:49;12.30;90.00
67141;DHT22;54058;52.010;5.546;2022-11-15T09:37:15;12.30;90.00
67141;DHT22;54058;52.010;5.546;2022-11-15T09:39:40;12.40;90.00
67141;DHT22;54058;52.010;5.546;2022-11-15T09:45:18;12.40;90.00
67141;DHT22;54058;52.010;5.546;2022-11-15T09:47:53;12.50;90.00
67141;DHT22;54058;52.010;5.546;2022-11-15T09:50:54;12.60;89.80
67141;DHT22;54058;52.010;5.546;2022-11-15T09:53:46;12.60;89.50
67141;DHT22;54058;52.010;5.546;2022-11-15T09:56:19;12.50;89.40
67141;DHT22;54058;52.010;5.546;2022-11-15T10:01:53;12.40;89.40
67141;DHT22;54058;52.010;5.546;2022-11-15T10:04:22;12.40;89.50
67141;DHT22;54058;52.010;5.546;2022-11-15T10:07:23;12.50;89.40
67141;DHT22;54058;52.010;5.546;2022-11-15T10:10:18;12.50;89.20
67141;DHT22;54058;52.010;5.546;2022-11-15T10:12:48;12.50;89.10
67141;DHT22;54058;52.010;5.546;2022-11-15T10:15:17;12.40;89.10
67141;DHT22;54058;52.010;5.546;2022-11-15T10:18:05;12.40;89.00
67141;DHT22;54058;52.010;5.546;2022-11-15T10:20:50;12.40;88.90
67141;DHT22;54058;52.010;5.546;2022-11-15T10:23:21;12.50;89.00
67141;DHT22;54058;52.010;5.546;2022-11-15T10:25:47;12.50;88.80
67141;DHT22;54058;52.010;5.546;2022-11-15T10:28:21;12.50;88.60
67141;DHT22;54058;52.010;5.546;2022-11-15T10:30:49;12.50;88.50
67141;DHT22;54058;52.010;5.546;2022-11-15T10:33:34;12.50;88.50
67141;DHT22;54058;52.010;5.546;2022-11-15T10:41:18;12.40;88.20
67141;DHT22;54058;52.010;5.546;2022-11-15T10:43:44;12.40;88.80
67141;DHT22;54058;52.010;5.546;2022-11-15T10:46:21;12.50;88.20
67141;DHT22;54058;52.010;5.546;2022-11-15T10:48:47;12.40;87.90
67141;DHT22;54058;52.010;5.546;2022-11-15T10:51:25;12.40;87.10
67141;DHT22;54058;52.010;5.546;2022-11-15T10:53:56;12.50;87.90
67141;DHT22;54058;52.010;5.546;2022-11-15T10:56:24;12.50;87.80
67141;DHT22;54058;52.010;5.546;2022-11-15T10:58:58;12.50;87.80
67141;DHT22;54058;52.010;5.546;2022-11-15T11:01:25;12.60;87.90
67141;DHT22;54058;52.010;5.546;2022-11-15T11:06:27;12.60;87.60
67141;DHT22;54058;52.010;5.546;2022-11-15T11:08:58;12.50;87.70
67141;DHT22;54058;52.010;5.546;2022-11-15T11:11:41;12.60;87.70
67141;DHT22;54058;52.010;5.546;2022-11-15T11:14:21;12.70;87.60
67141;DHT22;54058;52.010;5.546;2022-11-15T11:16:55;12.70;87.90
67141;DHT22;54058;52.010;5.546;2022-11-15T11:19:35;12.70;87.40
67141;DHT22;54058;52.010;5.546;2022-11-15T11:24:47;12.90;87.00
67141;DHT22;54058;52.010;5.546;2022-11-15T11:41:07;12.90;86.80
67141;DHT22;54058;52.010;5.546;2022-11-15T11:44:04;13.00;86.90
67141;DHT22;54058;52.010;5.546;2022-11-15T11:46:56;12.90;86.40
67141;DHT22;54058;52.010;5.546;2022-11-15T11:52:02;12.90;86.60
67141;DHT22;54058;52.010;5.546;2022-11-15T11:57:28;12.80;86.00
67141;DHT22;54058;52.010;5.546;2022-11-15T12:02:44;12.90;84.90
67141;DHT22;54058;52.010;5.546;2022-11-15T12:05:36;12.90;85.80
67141;DHT22;54058;52.010;5.546;2022-11-15T12:08:25;13.00;85.00
67141;DHT22;54058;52.010;5.546;2022-11-15T12:13:58;13.10;84.60
67141;DHT22;54058;52.010;5.546;2022-11-15T12:16:30;13.10;84.60
67141;DHT22;54058;52.010;5.546;2022-11-15T12:19:00;13.00;84.60
67141;DHT22;54058;52.010;5.546;2022-11-15T12:21:43;13.00;84.70
67141;DHT22;54058;52.010;5.546;2022-11-15T12:26:46;13.10;83.80
67141;DHT22;54058;52.010;5.546;2022-11-15T12:29:26;13.00;84.10
67141;DHT22;54058;52.010;5.546;2022-11-15T12:31:55;13.10;83.40
67141;DHT22;54058;52.010;5.546;2022-11-15T12:36:49;13.00;84.10
67141;DHT22;54058;52.010;5.546;2022-11-15T12:39:16;13.00;84.20
67141;DHT22;54058;52.010;5.546;2022-11-15T12:57:25;13.10;83.50
67141;DHT22;54058;52.010;5.546;2022-11-15T13:00:01;13.10;81.20
67141;DHT22;54058;52.010;5.546;2022-11-15T13:02:42;13.10;83.40
67141;DHT22;54058;52.010;5.546;2022-11-15T13:17:44;13.10;83.10
67141;DHT22;54058;52.010;5.546;2022-11-15T13:23:09;13.10;82.90
67141;DHT22;54058;52.010;5.546;2022-11-15T13:28:42;13.00;82.00
67141;DHT22;54058;52.010;5.546;2022-11-15T13:31:42;13.00;82.90
67141;DHT22;54058;52.010;5.546;2022-11-15T13:36:49;12.90;82.20
67141;DHT22;54058;52.010;5.546;2022-11-15T13:39:31;12.90;83.10
67141;DHT22;54058;52.010;5.546;2022-11-15T13:41:58;12.80;81.80
67141;DHT22;54058;52.010;5.546;2022-11-15T13:44:28;12.80;82.30
67141;DHT22;54058;52.010;5.546;2022-11-15T13:47:13;12.80;82.20
67141;DHT22;54058;52.010;5.546;2022-11-15T13:49:39;12.80;81.80
67141;DHT22;54058;52.010;5.546;2022-11-15T13:52:07;12.80;82.40
67141;DHT22;54058;52.010;5.546;2022-11-15T13:54:57;12.70;82.30
67141;DHT22;54058;52.010;5.546;2022-11-15T13:57:37;12.70;81.90
67141;DHT22;54058;52.010;5.546;2022-11-15T14:00:19;12.70;82.40
67141;DHT22;54058;52.010;5.546;2022-11-15T14:02:48;12.70;82.40
67141;DHT22;54058;52.010;5.546;2022-11-15T14:05:14;12.70;82.20
67141;DHT22;54058;52.010;5.546;2022-11-15T14:08:02;12.60;82.20
67141;DHT22;54058;52.010;5.546;2022-11-15T14:10:33;12.60;81.00
67141;DHT22;54058;52.010;5.546;2022-11-15T14:13:00;12.60;82.10
67141;DHT22;54058;52.010;5.546;2022-11-15T14:15:37;12.60;82.00
67141;DHT22;54058;52.010;5.546;2022-11-15T14:18:04;12.60;82.30
67141;DHT22;54058;52.010;5.546;2022-11-15T14:20:31;12.50;81.90
67141;DHT22;54058;52.010;5.546;2022-11-15T14:23:18;12.50;80.20
67141;DHT22;54058;52.010;5.546;2022-11-15T14:25:56;12.50;82.00
67141;DHT22;54058;52.010;5.546;2022-11-15T14:30:48;12.60;81.80
67141;DHT22;54058;52.010;5.546;2022-11-15T14:35:58;12.60;81.70
67141;DHT22;54058;52.010;5.546;2022-11-15T14:38:27;12.60;81.70
67141;DHT22;54058;52.010;5.546;2022-11-15T14:40:53;12.60;81.80
67141;DHT22;54058;52.010;5.546;2022-11-15T14:43:21;12.60;81.60
67141;DHT22;54058;52.010;5.546;2022-11-15T14:45:46;12.60;81.70
67141;DHT22;54058;52.010;5.546;2022-11-15T14:48:12;12.60;81.70
67141;DHT22;54058;52.010;5.546;2022-11-15T14:50:38;12.60;81.70
67141;DHT22;54058;52.010;5.546;2022-11-15T14:53:04;12.60;81.60
67141;DHT22;54058;52.010;5.546;2022-11-15T14:55:34;12.60;81.30
67141;DHT22;54058;52.010;5.546;2022-11-15T14:58:05;12.60;81.40
67141;DHT22;54058;52.010;5.546;2022-11-15T15:00:38;12.60;81.20
67141;DHT22;54058;52.010;5.546;2022-11-15T15:03:04;12.60;81.20
67141;DHT22;54058;52.010;5.546;2022-11-15T15:05:39;12.60;81.20
67141;DHT22;54058;52.010;5.546;2022-11-15T15:08:06;12.60;81.00
67141;DHT22;54058;52.010;5.546;2022-11-15T15:10:40;12.60;81.10
67141;DHT22;54058;52.010;5.546;2022-11-15T15:13:20;12.60;81.00
67141;DHT22;54058;52.010;5.546;2022-11-15T15:15:47;12.60;80.50
67141;DHT22;54058;52.010;5.546;2022-11-15T15:18:13;12.60;81.00
67141;DHT22;54058;52.010;5.546;2022-11-15T15:20:40;12.60;80.90
67141;DHT22;54058;52.010;5.546;2022-11-15T15:23:17;12.60;81.00
67141;DHT22;54058;52.010;5.546;2022-11-15T15:25:43;12.60;80.90
67141;DHT22;54058;52.010;5.546;2022-11-15T15:28:10;12.60;81.00
67141;DHT22;54058;52.010;5.546;2022-11-15T15:30:36;12.50;80.90
67141;DHT22;54058;52.010;5.546;2022-11-15T15:33:02;12.60;81.10
67141;DHT22;54058;52.010;5.546;2022-11-15T15:35:31;12.50;81.70
67141;DHT22;54058;52.010;5.546;2022-11-15T15:37:57;12.50;81.00
67141;DHT22;54058;52.010;5.546;2022-11-15T15:40:24;12.50;81.00
67141;DHT22;54058;52.010;5.546;2022-11-15T15:42:50;12.50;80.90
67141;DHT22;54058;52.010;5.546;2022-11-15T15:45:17;12.50;81.00
67141;DHT22;54058;52.010;5.546;2022-11-15T15:47:43;12.50;80.80
67141;DHT22;54058;52.010;5.546;2022-11-15T15:50:24;12.40;80.70
67141;DHT22;54058;52.010;5.546;2022-11-15T15:52:58;12.40;80.40
67141;DHT22;54058;52.010;5.546;2022-11-15T15:55:25;12.40;80.60
67141;DHT22;54058;52.010;5.546;2022-11-15T15:57:51;12.40;80.70
67141;DHT22;54058;52.010;5.546;2022-11-15T16:00:17;12.40;80.80
67141;DHT22;54058;52.010;5.546;2022-11-15T16:02:43;12.40;80.60
67141;DHT22;54058;52.010;5.546;2022-11-15T16:05:10;12.40;80.70
67141;DHT22;54058;52.010;5.546;2022-11-15T16:07:36;12.40;80.10
67141;DHT22;54058;52.010;5.546;2022-11-15T16:12:45;12.40;79.50
67141;DHT22;54058;52.010;5.546;2022-11-15T16:15:10;12.40;80.00
67141;DHT22;54058;52.010;5.546;2022-11-15T16:17:43;12.40;80.00
67141;DHT22;54058;52.010;5.546;2022-11-15T16:23:03;12.40;78.60
67141;DHT22;54058;52.010;5.546;2022-11-15T16:25:32;12.40;80.10
67141;DHT22;54058;52.010;5.546;2022-11-15T16:27:59;12.40;80.00
67141;DHT22;54058;52.010;5.546;2022-11-15T16:30:24;12.40;80.10
67141;DHT22;54058;52.010;5.546;2022-11-15T16:32:50;12.40;80.30
67141;DHT22;54058;52.010;5.546;2022-11-15T16:35:16;12.40;80.30
67141;DHT22;54058;52.010;5.546;2022-11-15T16:37:42;12.30;80.20
67141;DHT22;54058;52.010;5.546;2022-11-15T16:40:31;12.40;80.20
67141;DHT22;54058;52.010;5.546;2022-11-15T16:42:57;12.40;80.10
67141;DHT22;54058;52.010;5.546;2022-11-15T16:45:24;12.40;80.50
67141;DHT22;54058;52.010;5.546;2022-11-15T16:47:50;12.40;80.60
67141;DHT22;54058;52.010;5.546;2022-11-15T16:50:26;12.40;80.70
67141;DHT22;54058;52.010;5.546;2022-11-15T16:52:57;12.40;80.70
67141;DHT22;54058;52.010;5.546;2022-11-15T16:55:25;12.40;80.80
67141;DHT22;54058;52.010;5.546;2022-11-15T16:57:52;12.40;80.90
67141;DHT22;54058;52.010;5.546;2022-11-15T17:00:18;12.30;81.00
67141;DHT22;54058;52.010;5.546;2022-11-15T17:02:49;12.30;81.10
67141;DHT22;54058;52.010;5.546;2022-11-15T17:05:20;12.30;81.10
67141;DHT22;54058;52.010;5.546;2022-11-15T17:07:47;12.40;81.10
67141;DHT22;54058;52.010;5.546;2022-11-15T17:10:15;12.40;81.00
67141;DHT22;54058;52.010;5.546;2022-11-15T17:12:41;12.40;80.80
67141;DHT22;54058;52.010;5.546;2022-11-15T17:15:10;12.50;80.90
67141;DHT22;54058;52.010;5.546;2022-11-15T17:17:36;12.50;81.00
67141;DHT22;54058;52.010;5.546;2022-11-15T17:20:02;12.50;81.00
67141;DHT22;54058;52.010;5.546;2022-11-15T17:22:29;12.50;81.10
67141;DHT22;54058;52.010;5.546;2022-11-15T17:24:55;12.50;81.20
67141;DHT22;54058;52.010;5.546;2022-11-15T17:27:21;12.40;81.30
67141;DHT22;54058;52.010;5.546;2022-11-15T17:29:48;12.50;81.40
67141;DHT22;54058;52.010;5.546;2022-11-15T17:32:13;12.40;81.50
67141;DHT22;54058;52.010;5.546;2022-11-15T17:34:39;12.40;81.70
67141;DHT22;54058;52.010;5.546;2022-11-15T17:37:04;12.40;81.70
67141;DHT22;54058;52.010;5.546;2022-11-15T17:39:30;12.40;81.90
67141;DHT22;54058;52.010;5.546;2022-11-15T17:41:56;12.40;82.00
67141;DHT22;54058;52.010;5.546;2022-11-15T17:44:21;12.40;82.10